createdAt,value
2017-02-20T00:00:24.246Z,49.76
2017-02-20T00:01:33.635Z,50.05
2017-02-20T00:02:43.413Z,49.95
2017-02-20T00:03:53.173Z,49.66
2017-02-20T00:05:02.503Z,49.66
2017-02-20T00:06:12.276Z,49.76
2017-02-20T00:07:22.101Z,49.86
2017-02-20T00:08:31.862Z,49.57
2017-02-20T00:09:41.199Z,49.66
2017-02-20T00:10:50.956Z,49.48
2017-02-20T00:12:00.725Z,49.66
2017-02-20T00:13:11.406Z,49.95
2017-02-20T00:14:21.600Z,49.66
2017-02-20T00:15:30.936Z,49.95
2017-02-20T00:16:40.711Z,49.86
2017-02-20T00:17:50.479Z,50.05
2017-02-20T00:19:00.720Z,49.95
2017-02-20T00:20:10.900Z,49.86
2017-02-20T00:21:20.659Z,49.86
2017-02-20T00:22:30.418Z,49.76
2017-02-20T00:23:41.073Z,50.05
2017-02-20T00:24:51.318Z,50.15
2017-02-20T00:26:01.087Z,49.86
2017-02-20T00:27:10.397Z,49.95
2017-02-20T00:28:20.596Z,49.86
2017-02-20T00:29:31.231Z,49.95
2017-02-20T00:30:41.040Z,50.05
2017-02-20T00:31:50.796Z,49.95
2017-02-20T00:33:01.874Z,49.86
2017-02-20T00:34:12.055Z,49.86
2017-02-20T00:35:22.277Z,49.95
2017-02-20T00:36:32.522Z,49.95
2017-02-20T00:37:41.826Z,49.57
2017-02-20T00:38:52.032Z,50.05
2017-02-20T00:40:02.242Z,49.66
2017-02-20T00:41:12.022Z,49.76
2017-02-20T00:42:22.456Z,49.86
2017-02-20T00:43:32.677Z,49.86
2017-02-20T00:44:42.457Z,49.66
2017-02-20T00:45:51.785Z,49.86
2017-02-20T00:47:01.992Z,49.66
2017-02-20T00:48:12.228Z,50.05
2017-02-20T00:49:21.989Z,50.05
2017-02-20T00:50:31.296Z,50.15
2017-02-20T00:51:41.492Z,50.15
2017-02-20T00:52:50.831Z,50.05
2017-02-20T00:54:00.626Z,50.05
2017-02-20T00:55:10.408Z,50.05
2017-02-20T00:56:19.722Z,50.05
2017-02-20T00:57:29.051Z,50.05
2017-02-20T00:58:38.370Z,50.52
2017-02-20T00:59:48.617Z,50.52
2017-02-20T01:00:57.978Z,50.34
2017-02-20T01:02:07.780Z,50.34
2017-02-20T01:03:17.547Z,50.43
2017-02-20T01:04:28.208Z,50.24
2017-02-20T01:05:38.455Z,50.34
2017-02-20T01:06:47.772Z,50.15
2017-02-20T01:07:57.553Z,50.43
2017-02-20T01:09:07.754Z,50.43
2017-02-20T01:10:17.070Z,50.24
2017-02-20T01:11:27.316Z,50.24
2017-02-20T01:12:36.634Z,50.52
2017-02-20T01:13:45.943Z,50.52
2017-02-20T01:14:56.164Z,50.24
2017-02-20T01:16:05.920Z,50.34
2017-02-20T01:17:15.307Z,50.15
2017-02-20T01:18:24.635Z,50.15
2017-02-20T01:19:33.945Z,50.05
2017-02-20T01:20:44.156Z,50.62
2017-02-20T01:21:55.224Z,50.24
2017-02-20T01:23:05.508Z,50.98
2017-02-20T01:24:15.256Z,51.07
2017-02-20T01:25:25.443Z,50.72
2017-02-20T01:26:36.079Z,50.6
2017-02-20T01:27:46.275Z,50.7
2017-02-20T01:28:56.518Z,50.81
2017-02-20T01:30:06.702Z,50.81
2017-02-20T01:31:17.336Z,50.6
2017-02-20T01:32:27.148Z,50.7
2017-02-20T01:33:37.363Z,51.2
2017-02-20T01:34:48.192Z,50.89
2017-02-20T01:35:57.505Z,50.7
2017-02-20T01:37:07.261Z,51.27
2017-02-20T01:38:17.936Z,50.7
2017-02-20T01:39:27.711Z,50.89
2017-02-20T01:40:37.537Z,50.79
2017-02-20T01:41:47.735Z,50.79
2017-02-20T01:42:57.928Z,50.98
2017-02-20T01:44:07.238Z,50.89
2017-02-20T01:45:16.573Z,50.89
2017-02-20T01:46:26.540Z,51.17
2017-02-20T01:47:35.885Z,51.07
2017-02-20T01:48:45.650Z,51.27
2017-02-20T01:49:55.452Z,51.46
2017-02-20T01:51:05.645Z,51.39
2017-02-20T01:52:15.946Z,51.56
2017-02-20T01:53:26.143Z,51.65
2017-02-20T01:54:35.464Z,51.1
2017-02-20T01:55:45.236Z,51.07
2017-02-20T01:56:55.418Z,51.36
2017-02-20T01:58:04.775Z,51.07
2017-02-20T01:59:14.089Z,51.07
2017-02-20T02:00:23.398Z,50.89
2017-02-20T02:01:33.159Z,50.79
2017-02-20T02:02:42.915Z,51.27
2017-02-20T02:03:53.150Z,51.27
2017-02-20T02:05:03.345Z,51.07
2017-02-20T02:06:14.424Z,50.98
2017-02-20T02:07:24.221Z,51.07
2017-02-20T02:08:34.402Z,51.07
2017-02-20T02:09:44.675Z,50.89
2017-02-20T02:10:54.435Z,50.79
2017-02-20T02:12:05.497Z,50.98
2017-02-20T02:13:15.705Z,51.17
2017-02-20T02:14:25.016Z,51.36
2017-02-20T02:15:34.402Z,51.27
2017-02-20T02:16:44.150Z,51.07
2017-02-20T02:17:53.932Z,50.98
2017-02-20T02:19:03.263Z,50.98
2017-02-20T02:20:13.027Z,50.79
2017-02-20T02:21:22.887Z,50.79
2017-02-20T02:22:33.092Z,51.17
2017-02-20T02:23:42.841Z,51.17
2017-02-20T02:24:53.913Z,50.79
2017-02-20T02:26:04.128Z,51.07
2017-02-20T02:27:14.521Z,51.27
2017-02-20T02:28:23.874Z,51.07
2017-02-20T02:29:34.528Z,50.98
2017-02-20T02:30:44.749Z,50.89
2017-02-20T02:31:54.113Z,50.98
2017-02-20T02:33:03.496Z,50.98
2017-02-20T02:34:12.830Z,50.89
2017-02-20T02:35:22.600Z,51.17
2017-02-20T02:36:32.371Z,51.07
2017-02-20T02:37:42.140Z,50.7
2017-02-20T02:38:51.961Z,51.07
2017-02-20T02:40:01.302Z,51.07
2017-02-20T02:41:10.629Z,51.07
2017-02-20T02:42:20.388Z,51.07
2017-02-20T02:43:29.709Z,50.89
2017-02-20T02:44:39.511Z,50.7
2017-02-20T02:45:49.748Z,50.89
2017-02-20T02:46:59.529Z,50.98
2017-02-20T02:48:09.327Z,51.07
2017-02-20T02:49:19.081Z,51.27
2017-02-20T02:50:29.350Z,50.79
2017-02-20T02:51:39.114Z,50.89
2017-02-20T02:52:48.891Z,50.98
2017-02-20T02:53:58.668Z,50.89
2017-02-20T02:55:08.466Z,50.98
2017-02-20T02:56:18.266Z,50.79
2017-02-20T02:57:28.024Z,51.07
2017-02-20T02:58:38.225Z,50.98
2017-02-20T02:59:48.002Z,50.79
2017-02-20T03:00:58.203Z,50.98
2017-02-20T03:02:08.035Z,50.79
2017-02-20T03:03:17.814Z,50.7
2017-02-20T03:04:27.143Z,50.79
2017-02-20T03:05:36.908Z,50.79
2017-02-20T03:06:46.673Z,51.27
2017-02-20T03:07:56.502Z,51.17
2017-02-20T03:09:06.268Z,51.27
2017-02-20T03:10:16.473Z,51.27
2017-02-20T03:11:26.234Z,50.89
2017-02-20T03:12:36.007Z,50.98
2017-02-20T03:13:45.812Z,51.17
2017-02-20T03:14:55.578Z,50.89
2017-02-20T03:16:05.351Z,51.07
2017-02-20T03:17:15.128Z,50.89
2017-02-20T03:18:24.908Z,50.89
2017-02-20T03:19:35.599Z,51.27
2017-02-20T03:20:45.367Z,51.27
2017-02-20T03:21:55.128Z,51.27
2017-02-20T03:23:04.906Z,51.07
2017-02-20T03:24:15.126Z,51.07
2017-02-20T03:25:24.932Z,51.07
2017-02-20T03:26:34.741Z,51.27
2017-02-20T03:27:44.500Z,50.89
2017-02-20T03:28:55.136Z,51.27
2017-02-20T03:30:04.945Z,50.98
2017-02-20T03:31:14.778Z,51.07
2017-02-20T03:32:24.098Z,51.36
2017-02-20T03:33:33.858Z,51.65
2017-02-20T03:34:44.510Z,51.75
2017-02-20T03:35:54.751Z,51.84
2017-02-20T03:37:05.012Z,51.27
2017-02-20T03:38:15.253Z,51.27
2017-02-20T03:39:25.022Z,51.27
2017-02-20T03:40:34.792Z,51.56
2017-02-20T03:41:45.000Z,51.46
2017-02-20T03:42:54.840Z,51.56
2017-02-20T03:44:05.035Z,51.56
2017-02-20T03:45:15.255Z,51.56
2017-02-20T03:46:25.482Z,51.46
2017-02-20T03:47:35.683Z,51.46
2017-02-20T03:48:45.524Z,51.56
2017-02-20T03:49:55.321Z,51.56
2017-02-20T03:51:05.090Z,51.65
2017-02-20T03:52:14.862Z,52.03
2017-02-20T03:53:24.632Z,51.75
2017-02-20T03:54:34.438Z,51.75
2017-02-20T03:55:44.227Z,51.75
2017-02-20T03:56:53.984Z,51.93
2017-02-20T03:58:03.737Z,52.03
2017-02-20T03:59:13.493Z,51.75
2017-02-20T04:00:24.175Z,51.84
2017-02-20T04:01:33.939Z,52.51
2017-02-20T04:02:43.262Z,52.51
2017-02-20T04:03:53.470Z,52.42
2017-02-20T04:05:03.676Z,52.42
2017-02-20T04:06:13.076Z,52.22
2017-02-20T04:07:22.857Z,51.93
2017-02-20T04:08:33.508Z,52.03
2017-02-20T04:09:43.278Z,52.03
2017-02-20T04:10:53.039Z,52.03
2017-02-20T04:12:02.512Z,52.13
2017-02-20T04:13:12.279Z,52.42
2017-02-20T04:14:22.492Z,52.61
2017-02-20T04:15:32.691Z,52.51
2017-02-20T04:16:42.436Z,52.32
2017-02-20T04:17:52.245Z,52.42
2017-02-20T04:19:01.995Z,52.03
2017-02-20T04:20:11.744Z,52.22
2017-02-20T04:21:21.089Z,52.03
2017-02-20T04:22:30.840Z,52.03
2017-02-20T04:23:40.639Z,52.42
2017-02-20T04:24:50.396Z,52.51
2017-02-20T04:26:00.622Z,52.32
2017-02-20T04:27:10.399Z,52.42
2017-02-20T04:28:19.736Z,52.42
2017-02-20T04:29:29.558Z,52.32
2017-02-20T04:30:39.346Z,52.32
2017-02-20T04:31:49.108Z,52.42
2017-02-20T04:32:59.753Z,52.32
2017-02-20T04:34:09.542Z,52.03
2017-02-20T04:35:19.347Z,52.51
2017-02-20T04:36:29.137Z,52.42
2017-02-20T04:37:39.334Z,52.51
2017-02-20T04:38:48.651Z,52.13
2017-02-20T04:39:58.409Z,52.39
2017-02-20T04:41:08.232Z,52.42
2017-02-20T04:42:18.002Z,52.42
2017-02-20T04:43:27.784Z,52.39
2017-02-20T04:44:38.007Z,52.39
2017-02-20T04:45:48.214Z,52.22
2017-02-20T04:46:58.463Z,52.51
2017-02-20T04:48:08.664Z,52.39
2017-02-20T04:49:18.432Z,52.42
2017-02-20T04:50:28.650Z,52.39
2017-02-20T04:51:38.411Z,52.32
2017-02-20T04:52:48.657Z,52.03
2017-02-20T04:53:58.430Z,51.84
2017-02-20T04:55:08.228Z,52.32
2017-02-20T04:56:17.981Z,51.84
2017-02-20T04:57:27.754Z,51.75
2017-02-20T04:58:37.564Z,51.84
2017-02-20T04:59:47.309Z,52.13
2017-02-20T05:00:57.094Z,51.93
2017-02-20T05:02:06.867Z,51.93
2017-02-20T05:03:16.184Z,52.03
2017-02-20T05:04:26.436Z,52.03
2017-02-20T05:05:37.083Z,51.84
2017-02-20T05:06:46.840Z,52.03
2017-02-20T05:07:56.601Z,51.93
2017-02-20T05:09:06.354Z,51.91
2017-02-20T05:10:16.632Z,51.93
2017-02-20T05:11:26.860Z,52.22
2017-02-20T05:12:36.606Z,51.81
2017-02-20T05:13:46.375Z,52.39
2017-02-20T05:14:56.168Z,51.91
2017-02-20T05:16:06.453Z,52.42
2017-02-20T05:17:16.214Z,52.48
2017-02-20T05:18:25.972Z,52.39
2017-02-20T05:19:35.733Z,52.39
2017-02-20T05:20:45.494Z,52.1
2017-02-20T05:21:55.773Z,51.91
2017-02-20T05:23:05.533Z,52.48
2017-02-20T05:24:14.873Z,52.32
2017-02-20T05:25:24.195Z,52.13
2017-02-20T05:26:34.400Z,52.29
2017-02-20T05:27:44.210Z,52.51
2017-02-20T05:28:54.854Z,52.42
2017-02-20T05:30:04.644Z,52.22
2017-02-20T05:31:14.845Z,52.13
2017-02-20T05:32:24.626Z,52.03
2017-02-20T05:33:34.454Z,52.48
2017-02-20T05:34:45.096Z,52.39
2017-02-20T05:35:54.845Z,52.22
2017-02-20T05:37:04.606Z,51.91
2017-02-20T05:38:14.843Z,52.39
2017-02-20T05:39:24.657Z,52.39
2017-02-20T05:40:34.427Z,52.51
2017-02-20T05:41:44.627Z,52.01
2017-02-20T05:42:54.853Z,51.84
2017-02-20T05:44:04.614Z,52.01
2017-02-20T05:45:14.567Z,51.91
2017-02-20T05:46:24.367Z,51.53
2017-02-20T05:47:34.562Z,51.81
2017-02-20T05:48:44.767Z,51.91
2017-02-20T05:49:54.520Z,51.62
2017-02-20T05:51:04.321Z,51.81
2017-02-20T05:52:14.555Z,51.65
2017-02-20T05:53:25.204Z,52.39
2017-02-20T05:54:34.961Z,53.28
2017-02-20T05:55:44.294Z,54.14
2017-02-20T05:56:54.683Z,54.61
2017-02-20T05:58:04.489Z,54.9
2017-02-20T05:59:14.274Z,54.9
2017-02-20T06:00:24.934Z,55.38
2017-02-20T06:01:34.732Z,55.1
2017-02-20T06:02:44.987Z,55.47
2017-02-20T06:03:55.622Z,55.29
2017-02-20T06:05:05.823Z,55.47
2017-02-20T06:06:15.588Z,54.9
2017-02-20T06:07:25.381Z,54.71
2017-02-20T06:08:34.763Z,54.61
2017-02-20T06:09:44.959Z,55.29
2017-02-20T06:10:55.193Z,54.33
2017-02-20T06:12:04.970Z,54.33
2017-02-20T06:13:14.744Z,54.8
2017-02-20T06:14:24.569Z,54.23
2017-02-20T06:15:34.329Z,54.33
2017-02-20T06:16:44.971Z,54.33
2017-02-20T06:17:54.732Z,54.43
2017-02-20T06:19:04.505Z,54.23
2017-02-20T06:20:15.197Z,53.94
2017-02-20T06:21:25.400Z,54.04
2017-02-20T06:22:35.179Z,54.04
2017-02-20T06:23:45.403Z,53.75
2017-02-20T06:24:56.055Z,53.37
2017-02-20T06:26:06.304Z,53.56
2017-02-20T06:27:16.084Z,53.47
2017-02-20T06:28:26.287Z,53.37
2017-02-20T06:29:35.608Z,53.47
2017-02-20T06:30:45.811Z,53.18
2017-02-20T06:31:56.522Z,53.18
2017-02-20T06:33:06.734Z,53.06
2017-02-20T06:34:16.937Z,52.7
2017-02-20T06:35:26.685Z,53.08
2017-02-20T06:36:36.007Z,53.28
2017-02-20T06:37:46.272Z,53.08
2017-02-20T06:38:57.365Z,52.7
2017-02-20T06:40:07.154Z,52.48
2017-02-20T06:41:16.920Z,52.32
2017-02-20T06:42:26.692Z,52.51
2017-02-20T06:43:36.938Z,52.51
2017-02-20T06:44:46.695Z,52.01
2017-02-20T06:45:56.460Z,52.29
2017-02-20T06:47:06.653Z,52.39
2017-02-20T06:48:17.297Z,52.42
2017-02-20T06:49:27.146Z,52.29
2017-02-20T06:50:37.357Z,52.01
2017-02-20T06:51:47.558Z,52.03
2017-02-20T06:52:57.346Z,52.51
2017-02-20T06:54:08.003Z,52.32
2017-02-20T06:55:18.270Z,52.22
2017-02-20T06:56:27.609Z,51.84
2017-02-20T06:57:37.812Z,51.84
2017-02-20T06:58:47.572Z,51.84
2017-02-20T06:59:57.782Z,51.84
2017-02-20T07:01:08.026Z,51.91
2017-02-20T07:02:17.813Z,51.56
2017-02-20T07:03:27.580Z,51.81
2017-02-20T07:04:37.787Z,51.93
2017-02-20T07:05:48.444Z,51.62
2017-02-20T07:06:58.285Z,51.93
2017-02-20T07:08:08.053Z,51.17
2017-02-20T07:09:18.268Z,51.53
2017-02-20T07:10:28.057Z,51.36
2017-02-20T07:11:37.810Z,51.27
2017-02-20T07:12:47.619Z,51.36
2017-02-20T07:13:56.932Z,51.56
2017-02-20T07:15:06.741Z,51.62
2017-02-20T07:16:16.531Z,51.43
2017-02-20T07:17:25.866Z,51.46
2017-02-20T07:18:35.680Z,51.65
2017-02-20T07:19:45.430Z,51.53
2017-02-20T07:20:55.199Z,51.15
2017-02-20T07:22:05.425Z,51.17
2017-02-20T07:23:15.182Z,50.95
2017-02-20T07:24:25.026Z,51.17
2017-02-20T07:25:34.824Z,51.07
2017-02-20T07:26:45.029Z,51.07
2017-02-20T07:27:54.790Z,51.07
2017-02-20T07:29:04.575Z,50.89
2017-02-20T07:30:14.377Z,50.7
2017-02-20T07:31:24.154Z,50.7
2017-02-20T07:32:33.909Z,50.79
2017-02-20T07:33:44.134Z,50.7
2017-02-20T07:34:54.801Z,50.7
2017-02-20T07:36:05.114Z,50.98
2017-02-20T07:37:14.867Z,50.7
2017-02-20T07:38:24.657Z,50.6
2017-02-20T07:39:34.430Z,50.6
2017-02-20T07:40:43.758Z,50.89
2017-02-20T07:41:54.000Z,50.5
2017-02-20T07:43:03.753Z,50.21
2017-02-20T07:44:13.966Z,50.31
2017-02-20T07:45:23.719Z,50.21
2017-02-20T07:46:33.923Z,50.21
2017-02-20T07:47:43.738Z,50.31
2017-02-20T07:48:53.067Z,50.41
2017-02-20T07:50:02.388Z,50.6
2017-02-20T07:51:12.169Z,50.31
2017-02-20T07:52:21.923Z,49.84
2017-02-20T07:53:31.735Z,50.31
2017-02-20T07:54:41.493Z,49.84
2017-02-20T07:55:51.262Z,50.02
2017-02-20T07:57:01.031Z,50.02
2017-02-20T07:58:11.228Z,49.93
2017-02-20T07:59:21.505Z,49.74
2017-02-20T08:00:30.814Z,50.02
2017-02-20T08:01:40.604Z,49.64
2017-02-20T08:02:50.361Z,49.74
2017-02-20T08:04:00.550Z,49.74
2017-02-20T08:05:10.387Z,49.93
2017-02-20T08:06:20.605Z,49.84
2017-02-20T08:07:29.950Z,49.38
2017-02-20T08:08:39.715Z,49.35
2017-02-20T08:09:49.100Z,49.48
2017-02-20T08:10:59.489Z,49.57
2017-02-20T08:12:09.286Z,49.66
2017-02-20T08:13:19.052Z,49.57
2017-02-20T08:14:29.692Z,49
2017-02-20T08:15:39.462Z,49.29
2017-02-20T08:16:48.855Z,49
2017-02-20T08:17:58.188Z,49.38
2017-02-20T08:19:08.417Z,49
2017-02-20T08:20:18.606Z,48.9
2017-02-20T08:21:28.826Z,48.8
2017-02-20T08:22:38.629Z,48.8
2017-02-20T08:23:48.830Z,49
2017-02-20T08:24:58.605Z,48.42
2017-02-20T08:26:08.372Z,48.9
2017-02-20T08:27:18.157Z,48.52
2017-02-20T08:28:28.418Z,48.9
2017-02-20T08:29:38.624Z,48.61
2017-02-20T08:30:48.393Z,49.19
2017-02-20T08:31:58.626Z,48.61
2017-02-20T08:33:08.391Z,48.8
2017-02-20T08:34:18.640Z,48.61
2017-02-20T08:35:28.429Z,48.9
2017-02-20T08:36:38.234Z,48.71
2017-02-20T08:37:48.015Z,48.42
2017-02-20T08:38:58.217Z,48.61
2017-02-20T08:40:08.026Z,48.52
2017-02-20T08:41:17.779Z,48.71
2017-02-20T08:42:27.552Z,49
2017-02-20T08:43:37.309Z,49
2017-02-20T08:44:47.075Z,48.9
2017-02-20T08:45:56.440Z,48.9
2017-02-20T08:47:06.226Z,48.8
2017-02-20T08:48:16.003Z,48.8
2017-02-20T08:49:25.764Z,48.8
2017-02-20T08:50:35.533Z,48.9
2017-02-20T08:51:45.782Z,48.9
2017-02-20T08:52:55.539Z,48.9
2017-02-20T08:54:05.300Z,48.9
2017-02-20T08:55:15.065Z,48.9
2017-02-20T08:56:24.839Z,48.8
2017-02-20T08:57:35.111Z,48.9
2017-02-20T08:58:44.858Z,48.9
2017-02-20T08:59:55.095Z,48.71
2017-02-20T09:01:04.904Z,48.8
2017-02-20T09:02:14.693Z,48.8
2017-02-20T09:03:24.974Z,48.71
2017-02-20T09:04:34.747Z,48.88
2017-02-20T09:05:44.513Z,48.71
2017-02-20T09:06:54.277Z,48.71
2017-02-20T09:08:04.475Z,48.9
2017-02-20T09:09:14.296Z,48.71
2017-02-20T09:10:24.505Z,48.78
2017-02-20T09:11:34.714Z,48.68
2017-02-20T09:12:44.487Z,48.9
2017-02-20T09:13:54.248Z,48.8
2017-02-20T09:15:04.509Z,48.71
2017-02-20T09:16:14.283Z,48.68
2017-02-20T09:17:24.503Z,48.9
2017-02-20T09:18:34.276Z,48.8
2017-02-20T09:19:44.502Z,48.68
2017-02-20T09:20:54.471Z,48.71
2017-02-20T09:22:04.681Z,48.9
2017-02-20T09:23:14.446Z,48.71
2017-02-20T09:24:24.203Z,48.71
2017-02-20T09:25:33.999Z,48.8
2017-02-20T09:26:44.398Z,48.97
2017-02-20T09:27:54.166Z,48.71
2017-02-20T09:29:04.360Z,49.19
2017-02-20T09:30:14.572Z,49
2017-02-20T09:31:24.786Z,49
2017-02-20T09:32:34.608Z,48.9
2017-02-20T09:33:44.805Z,48.9
2017-02-20T09:34:54.577Z,48.71
2017-02-20T09:36:04.355Z,48.9
2017-02-20T09:37:14.123Z,48.8
2017-02-20T09:38:23.990Z,48.61
2017-02-20T09:39:33.782Z,48.61
2017-02-20T09:40:43.548Z,48.42
2017-02-20T09:41:53.318Z,48.61
2017-02-20T09:43:03.070Z,48.71
2017-02-20T09:44:13.368Z,48.52
2017-02-20T09:45:23.136Z,48.71
2017-02-20T09:46:32.910Z,48.52
2017-02-20T09:47:42.683Z,48.33
2017-02-20T09:48:52.440Z,48.33
2017-02-20T09:50:02.266Z,48.33
2017-02-20T09:51:12.025Z,48.61
2017-02-20T09:52:21.796Z,48.61
2017-02-20T09:53:31.601Z,48.61
2017-02-20T09:54:42.242Z,48.61
2017-02-20T09:55:52.072Z,48.13
2017-02-20T09:57:01.824Z,47.94
2017-02-20T09:58:12.912Z,47.85
2017-02-20T09:59:23.113Z,47.94
2017-02-20T10:00:33.312Z,48.13
2017-02-20T10:01:43.557Z,48.13
2017-02-20T10:02:53.761Z,48.23
2017-02-20T10:04:04.402Z,48.13
2017-02-20T10:05:14.644Z,48.04
2017-02-20T10:06:24.421Z,48.16
2017-02-20T10:07:34.267Z,48.23
2017-02-20T10:08:43.584Z,48.04
2017-02-20T10:09:52.901Z,48.04
2017-02-20T10:11:03.116Z,48.23
2017-02-20T10:12:13.318Z,48.13
2017-02-20T10:13:23.151Z,48.33
2017-02-20T10:14:32.914Z,48.33
2017-02-20T10:15:42.730Z,48.33
2017-02-20T10:16:52.964Z,48.23
2017-02-20T10:18:03.209Z,48.13
2017-02-20T10:19:12.599Z,48.04
2017-02-20T10:20:23.255Z,48.33
2017-02-20T10:21:33.035Z,48.23
2017-02-20T10:22:43.673Z,48.33
2017-02-20T10:23:53.878Z,48.33
2017-02-20T10:25:04.136Z,48.23
2017-02-20T10:26:13.897Z,48.07
2017-02-20T10:27:23.658Z,48.23
2017-02-20T10:28:33.436Z,48.33
2017-02-20T10:29:43.226Z,48.23
2017-02-20T10:30:53.050Z,48.33
2017-02-20T10:32:02.833Z,48.23
2017-02-20T10:33:13.072Z,48.33
2017-02-20T10:34:22.863Z,48.33
2017-02-20T10:35:33.071Z,48.33
2017-02-20T10:36:42.911Z,48.13
2017-02-20T10:37:52.701Z,48.33
2017-02-20T10:39:02.455Z,48.23
2017-02-20T10:40:11.790Z,48.23
2017-02-20T10:41:22.872Z,48.04
2017-02-20T10:42:32.693Z,48.23
2017-02-20T10:43:42.452Z,48.04
2017-02-20T10:44:52.656Z,48.13
2017-02-20T10:46:02.857Z,48.13
2017-02-20T10:47:13.050Z,48.23
2017-02-20T10:48:22.867Z,48.23
2017-02-20T10:49:32.657Z,48.23
2017-02-20T10:50:42.429Z,48.23
2017-02-20T10:51:52.183Z,48.23
2017-02-20T10:53:02.384Z,48.04
2017-02-20T10:54:13.084Z,48.23
2017-02-20T10:55:22.395Z,48.04
2017-02-20T10:56:33.487Z,48.04
2017-02-20T10:57:43.261Z,48.23
2017-02-20T10:58:53.034Z,48.23
2017-02-20T11:00:02.959Z,48.04
2017-02-20T11:01:13.181Z,48.04
2017-02-20T11:02:22.538Z,48.23
2017-02-20T11:03:32.792Z,48.23
2017-02-20T11:04:42.556Z,48.33
2017-02-20T11:05:52.373Z,48.13
2017-02-20T11:07:02.150Z,48.04
2017-02-20T11:08:12.370Z,47.85
2017-02-20T11:09:22.121Z,47.56
2017-02-20T11:10:31.890Z,47.94
2017-02-20T11:11:41.699Z,48.42
2017-02-20T11:12:51.475Z,47.75
2017-02-20T11:14:02.113Z,47.56
2017-02-20T11:15:11.434Z,47.85
2017-02-20T11:16:20.744Z,47.85
2017-02-20T11:17:31.441Z,47.47
2017-02-20T11:18:42.094Z,47.47
2017-02-20T11:19:52.302Z,47.56
2017-02-20T11:21:02.492Z,47.47
2017-02-20T11:22:13.162Z,47.78
2017-02-20T11:23:22.963Z,47.47
2017-02-20T11:24:32.730Z,47.58
2017-02-20T11:25:42.505Z,47.66
2017-02-20T11:26:51.834Z,47.56
2017-02-20T11:28:01.612Z,47.27
2017-02-20T11:29:11.437Z,47.58
2017-02-20T11:30:21.202Z,47.58
2017-02-20T11:31:30.966Z,47.27
2017-02-20T11:32:40.724Z,47.49
2017-02-20T11:33:50.485Z,47.78
2017-02-20T11:35:00.291Z,47.68
2017-02-20T11:36:10.071Z,47.68
2017-02-20T11:37:20.717Z,47.39
2017-02-20T11:38:30.915Z,47.2
2017-02-20T11:39:40.676Z,47.11
2017-02-20T11:40:50.504Z,47.11
2017-02-20T11:42:00.273Z,47.3
2017-02-20T11:43:10.055Z,47.68
2017-02-20T11:44:19.816Z,47.78
2017-02-20T11:45:30.010Z,47.68
2017-02-20T11:46:40.461Z,47.68
2017-02-20T11:47:50.672Z,47.68
2017-02-20T11:49:00.428Z,47.68
2017-02-20T11:50:10.202Z,48.16
2017-02-20T11:51:20.439Z,48.44
2017-02-20T11:52:30.245Z,48.25
2017-02-20T11:53:40.022Z,48.44
2017-02-20T11:54:50.219Z,48.25
2017-02-20T11:56:00.003Z,48.35
2017-02-20T11:57:10.245Z,48.44
2017-02-20T11:58:20.058Z,48.35
2017-02-20T11:59:29.808Z,48.54
2017-02-20T12:00:40.061Z,48.73
2017-02-20T12:01:50.302Z,48.73
2017-02-20T12:02:59.623Z,48.73
2017-02-20T12:04:09.879Z,48.73
2017-02-20T12:05:19.625Z,48.73
2017-02-20T12:06:29.835Z,48.83
2017-02-20T12:07:39.608Z,48.64
2017-02-20T12:08:49.838Z,48.64
2017-02-20T12:10:00.083Z,48.64
2017-02-20T12:11:09.846Z,48.64
2017-02-20T12:12:19.612Z,48.73
2017-02-20T12:13:30.265Z,48.73
2017-02-20T12:14:40.035Z,48.73
2017-02-20T12:15:49.412Z,48.8
2017-02-20T12:16:59.198Z,48.73
2017-02-20T12:18:08.981Z,48.73
2017-02-20T12:19:19.226Z,48.83
2017-02-20T12:20:29.019Z,48.73
2017-02-20T12:21:38.826Z,48.73
2017-02-20T12:22:48.584Z,48.64
2017-02-20T12:23:57.913Z,48.83
2017-02-20T12:25:07.664Z,48.54
2017-02-20T12:26:17.857Z,48.73
2017-02-20T12:27:27.248Z,48.52
2017-02-20T12:28:37.014Z,48.9
2017-02-20T12:29:46.803Z,48.33
2017-02-20T12:30:56.570Z,48.61
2017-02-20T12:32:06.797Z,48.71
2017-02-20T12:33:16.602Z,48.73
2017-02-20T12:34:26.391Z,48.71
2017-02-20T12:35:36.612Z,48.71
2017-02-20T12:36:46.366Z,48.61
2017-02-20T12:37:56.151Z,48.42
2017-02-20T12:39:05.964Z,48.71
2017-02-20T12:40:15.737Z,48.61
2017-02-20T12:41:25.508Z,48.71
2017-02-20T12:42:35.267Z,49.02
2017-02-20T12:43:44.612Z,48.71
2017-02-20T12:44:55.319Z,48.42
2017-02-20T12:46:05.081Z,49
2017-02-20T12:47:15.276Z,48.71
2017-02-20T12:48:25.029Z,48.71
2017-02-20T12:49:34.824Z,48.8
2017-02-20T12:50:44.644Z,48.9
2017-02-20T12:51:54.405Z,48.9
2017-02-20T12:53:04.158Z,48.71
2017-02-20T12:54:13.919Z,49.19
2017-02-20T12:55:23.689Z,48.9
2017-02-20T12:56:33.498Z,48.9
2017-02-20T12:57:43.267Z,48.9
2017-02-20T12:58:53.508Z,48.8
2017-02-20T13:00:03.266Z,48.71
2017-02-20T13:01:12.585Z,49.19
2017-02-20T13:02:22.508Z,49.21
2017-02-20T13:03:32.281Z,49.4
2017-02-20T13:04:42.046Z,49.02
2017-02-20T13:05:52.243Z,49.21
2017-02-20T13:07:02.008Z,49.21
2017-02-20T13:08:12.458Z,49.31
2017-02-20T13:09:22.214Z,49.19
2017-02-20T13:10:31.537Z,49.19
2017-02-20T13:11:41.745Z,49.38
2017-02-20T13:12:51.968Z,49.66
2017-02-20T13:14:03.119Z,49.57
2017-02-20T13:15:12.880Z,49.66
2017-02-20T13:16:23.089Z,49.57
2017-02-20T13:17:32.863Z,49.57
2017-02-20T13:18:43.068Z,49.48
2017-02-20T13:19:53.760Z,49.57
2017-02-20T13:21:03.570Z,49.57
2017-02-20T13:22:13.314Z,50.15
2017-02-20T13:23:23.099Z,50.15
2017-02-20T13:24:32.428Z,49.66
2017-02-20T13:25:42.243Z,50.05
2017-02-20T13:26:52.000Z,49.95
2017-02-20T13:28:01.347Z,49.86
2017-02-20T13:29:10.667Z,49.86
2017-02-20T13:30:20.442Z,49.86
2017-02-20T13:31:30.273Z,49.95
2017-02-20T13:32:39.626Z,49.86
2017-02-20T13:33:49.419Z,49.86
2017-02-20T13:34:59.181Z,50.05
2017-02-20T13:36:08.514Z,49.86
2017-02-20T13:37:17.895Z,49.95
2017-02-20T13:38:28.104Z,49.95
2017-02-20T13:39:37.433Z,50.05
2017-02-20T13:40:46.755Z,49.57
2017-02-20T13:41:56.587Z,49.57
2017-02-20T13:43:05.985Z,49.66
2017-02-20T13:44:15.310Z,49.66
2017-02-20T13:45:24.642Z,50.05
2017-02-20T13:46:33.972Z,49.66
2017-02-20T13:47:44.184Z,49.48
2017-02-20T13:48:53.998Z,49.66
2017-02-20T13:50:03.314Z,49.95
2017-02-20T13:51:12.656Z,49.48
2017-02-20T13:52:21.985Z,49.95
2017-02-20T13:53:31.771Z,50.05
2017-02-20T13:54:41.140Z,49.57
2017-02-20T13:55:50.472Z,50.05
2017-02-20T13:57:00.671Z,50.15
2017-02-20T13:58:10.438Z,49.95
2017-02-20T13:59:19.756Z,49.66
2017-02-20T14:00:29.149Z,50.05
2017-02-20T14:01:38.477Z,49.86
2017-02-20T14:02:48.237Z,50.05
2017-02-20T14:03:57.552Z,50.05
2017-02-20T14:05:07.341Z,50.05
2017-02-20T14:06:17.156Z,50.05
2017-02-20T14:07:26.913Z,50.24
2017-02-20T14:08:36.234Z,50.52
2017-02-20T14:09:45.575Z,50.62
2017-02-20T14:10:55.350Z,50.43
2017-02-20T14:12:04.709Z,50.24
2017-02-20T14:13:14.906Z,50.43
2017-02-20T14:14:24.236Z,50.43
2017-02-20T14:15:33.993Z,50.43
2017-02-20T14:16:43.315Z,50.43
2017-02-20T14:17:52.690Z,50.43
2017-02-20T14:19:02.004Z,50.43
2017-02-20T14:20:11.770Z,50.05
2017-02-20T14:21:21.087Z,50.05
2017-02-20T14:22:30.420Z,50.41
2017-02-20T14:23:39.788Z,50.52
2017-02-20T14:24:50.007Z,50.62
2017-02-20T14:25:59.335Z,50.91
2017-02-20T14:27:09.557Z,51.01
2017-02-20T14:28:18.862Z,50.91
2017-02-20T14:29:29.122Z,50.81
2017-02-20T14:30:39.330Z,50.72
2017-02-20T14:31:49.130Z,50.72
2017-02-20T14:32:58.896Z,50.72
2017-02-20T14:34:08.656Z,50.72
2017-02-20T14:35:18.915Z,50.62
2017-02-20T14:36:28.667Z,50.62
2017-02-20T14:37:38.424Z,50.72
2017-02-20T14:38:48.643Z,50.72
2017-02-20T14:39:58.834Z,50.72
2017-02-20T14:41:08.354Z,50.62
2017-02-20T14:42:18.133Z,50.52
2017-02-20T14:43:27.457Z,50.72
2017-02-20T14:44:36.758Z,50.72
2017-02-20T14:45:46.075Z,50.72
2017-02-20T14:46:55.428Z,51.01
2017-02-20T14:48:04.734Z,50.7
2017-02-20T14:49:14.063Z,50.81
2017-02-20T14:50:24.292Z,50.7
2017-02-20T14:51:34.506Z,51.1
2017-02-20T14:52:44.027Z,51.27
2017-02-20T14:53:53.355Z,50.81
2017-02-20T14:55:03.124Z,50.91
2017-02-20T14:56:12.441Z,50.91
2017-02-20T14:57:22.198Z,51.01
2017-02-20T14:58:31.581Z,51.1
2017-02-20T14:59:42.226Z,51.2
2017-02-20T15:00:51.975Z,51.1
2017-02-20T15:02:01.342Z,50.91
2017-02-20T15:03:11.093Z,51.1
2017-02-20T15:04:20.903Z,51.1